createdAt,value
2023-01-22T00:01:38.741Z,3.25
2023-01-22T00:04:05.971Z,4.90
2023-01-22T00:06:32.902Z,4.18
2023-01-22T00:09:03.816Z,4.95
2023-01-22T00:11:30.965Z,4.85
2023-01-22T00:13:58.310Z,6.32
2023-01-22T00:16:26.699Z,8.13
2023-01-22T00:18:53.882Z,13.35
2023-01-22T00:21:22.015Z,13.85
2023-01-22T00:23:49.254Z,8.75
2023-01-22T00:26:17.326Z,15.38
2023-01-22T00:28:45.544Z,14.05
2023-01-22T00:31:13.906Z,16.80
2023-01-22T00:33:43.467Z,14.63
2023-01-22T00:36:13.332Z,13.05
2023-01-22T00:38:41.828Z,9.50
2023-01-22T00:41:09.911Z,11.45
2023-01-22T00:43:40.763Z,8.43
2023-01-22T00:46:09.095Z,6.57
2023-01-22T00:48:37.073Z,8.27
2023-01-22T00:51:08.752Z,6.55
2023-01-22T00:53:37.941Z,6.45
2023-01-22T00:56:05.774Z,5.15
2023-01-22T00:58:33.791Z,6.63
2023-01-22T01:04:01.382Z,11.27
2023-01-22T01:06:30.077Z,7.13
2023-01-22T01:08:57.285Z,8.65
2023-01-22T01:11:26.104Z,8.75
2023-01-22T01:13:53.553Z,8.85
2023-01-22T01:16:23.648Z,7.93
2023-01-22T01:18:50.735Z,6.50
2023-01-22T01:21:19.339Z,13.48
2023-01-22T01:23:47.787Z,13.07
2023-01-22T01:26:17.960Z,12.52
2023-01-22T01:28:45.718Z,12.63
2023-01-22T01:31:14.961Z,9.83
2023-01-22T01:33:42.825Z,8.95
2023-01-22T01:36:12.705Z,7.68
2023-01-22T01:38:39.749Z,5.50
2023-01-22T01:41:08.697Z,4.55
2023-01-22T01:43:36.346Z,3.88
2023-01-22T01:46:04.967Z,5.32
2023-01-22T01:48:35.879Z,4.60
2023-01-22T01:51:07.495Z,5.55
2023-01-22T01:53:36.184Z,3.70
2023-01-22T01:56:07.851Z,4.90
2023-01-22T01:58:38.133Z,7.57
2023-01-22T02:01:10.484Z,5.65
2023-01-22T02:03:37.707Z,5.55
2023-01-22T02:06:05.411Z,7.65
2023-01-22T02:08:32.744Z,5.80
2023-01-22T02:11:00.121Z,6.07
2023-01-22T02:13:31.241Z,6.57
2023-01-22T02:15:59.895Z,5.05
2023-01-22T02:18:27.175Z,6.68
2023-01-22T02:20:57.909Z,7.85
2023-01-22T02:23:26.737Z,6.18
2023-01-22T02:25:55.836Z,6.13
2023-01-22T02:30:50.561Z,6.60
2023-01-22T02:33:17.758Z,6.45
2023-01-22T02:35:45.087Z,6.22
2023-01-22T02:38:14.210Z,6.25
2023-01-22T02:40:49.360Z,6.43
2023-01-22T02:43:17.355Z,6.28
2023-01-22T02:45:46.887Z,6.28
2023-01-22T02:48:13.850Z,5.50
2023-01-22T02:50:41.070Z,5.55
2023-01-22T02:53:08.009Z,8.48
2023-01-22T02:55:37.599Z,6.18
2023-01-22T02:58:04.620Z,10.55
2023-01-22T03:00:31.991Z,7.65
2023-01-22T03:02:58.903Z,8.57
2023-01-22T03:05:26.132Z,8.80
2023-01-22T03:07:53.012Z,7.93
2023-01-22T03:10:21.331Z,8.82
2023-01-22T03:13:08.307Z,7.50
2023-01-22T03:15:57.054Z,9.55
2023-01-22T03:18:42.941Z,11.05
2023-01-22T03:21:16.638Z,12.73
2023-01-22T03:23:45.590Z,9.98
2023-01-22T03:26:13.529Z,10.50
2023-01-22T03:28:42.183Z,13.70
2023-01-22T03:31:09.509Z,12.93
2023-01-22T03:33:36.796Z,11.90
2023-01-22T03:36:06.863Z,19.77
2023-01-22T03:38:33.849Z,13.25
2023-01-22T03:41:02.703Z,15.27
2023-01-22T03:43:30.143Z,10.73
2023-01-22T03:46:03.799Z,7.63
2023-01-22T03:48:31.129Z,8.48
2023-01-22T03:51:04.620Z,7.78
2023-01-22T03:53:31.852Z,8.55
2023-01-22T03:55:59.928Z,12.13
2023-01-22T03:58:28.827Z,10.38
2023-01-22T04:03:28.021Z,13.90
2023-01-22T04:05:55.606Z,14.20
2023-01-22T04:08:23.010Z,12.38
2023-01-22T04:10:50.290Z,11.52
2023-01-22T04:13:17.359Z,11.38
2023-01-22T04:15:45.147Z,9.15
2023-01-22T04:18:12.129Z,12.98
2023-01-22T04:20:41.185Z,8.13
2023-01-22T04:23:08.821Z,10.05
2023-01-22T04:25:36.465Z,7.45
2023-01-22T04:28:03.946Z,6.93
2023-01-22T04:30:31.251Z,7.97
2023-01-22T04:32:58.525Z,8.00
2023-01-22T04:35:25.790Z,7.70
2023-01-22T04:37:54.054Z,6.35
2023-01-22T04:40:21.315Z,13.57
2023-01-22T04:42:48.626Z,7.22
2023-01-22T04:45:15.985Z,7.43
2023-01-22T04:47:44.033Z,8.85
2023-01-22T04:50:16.712Z,11.82
2023-01-22T04:52:44.018Z,15.85
2023-01-22T04:55:13.285Z,13.50
2023-01-22T04:57:40.226Z,15.32
2023-01-22T05:00:09.087Z,13.63
2023-01-22T05:02:36.222Z,11.23
2023-01-22T05:05:04.100Z,11.10
2023-01-22T05:07:31.038Z,9.55
2023-01-22T05:09:58.389Z,10.98
2023-01-22T05:12:26.970Z,10.32
2023-01-22T05:14:54.236Z,11.25
2023-01-22T05:17:21.406Z,9.52
2023-01-22T05:19:50.947Z,9.80
2023-01-22T05:22:17.858Z,12.75
2023-01-22T05:24:45.266Z,13.07
2023-01-22T05:27:12.242Z,12.02
2023-01-22T05:29:40.842Z,9.73
2023-01-22T05:32:09.185Z,10.18
2023-01-22T05:34:36.364Z,12.13
2023-01-22T05:37:03.348Z,9.80
2023-01-22T05:39:30.606Z,10.88
2023-01-22T05:41:57.651Z,10.10
2023-01-22T05:44:26.211Z,12.10
2023-01-22T05:46:54.480Z,13.03
2023-01-22T05:49:21.642Z,12.65
2023-01-22T05:51:48.867Z,10.13
2023-01-22T05:54:16.166Z,10.25
2023-01-22T05:56:43.028Z,11.13
2023-01-22T05:59:11.683Z,9.55
2023-01-22T06:01:39.663Z,12.63
2023-01-22T06:04:08.654Z,26.02
2023-01-22T06:06:35.601Z,21.98
2023-01-22T06:09:02.882Z,20.70
2023-01-22T06:11:30.009Z,14.50
2023-01-22T06:13:58.575Z,17.75
2023-01-22T06:16:25.412Z,17.95
2023-01-22T06:18:54.995Z,17.50
2023-01-22T06:21:23.410Z,13.75
2023-01-22T06:23:50.649Z,13.25
2023-01-22T06:26:17.908Z,19.48
2023-01-22T06:28:45.113Z,20.17
2023-01-22T06:31:12.563Z,16.75
2023-01-22T06:33:41.286Z,17.00
2023-01-22T06:36:08.915Z,16.98
2023-01-22T06:38:38.426Z,13.68
2023-01-22T06:41:06.096Z,17.27
2023-01-22T06:43:33.360Z,12.65
2023-01-22T06:46:00.425Z,14.40
2023-01-22T06:48:27.651Z,15.75
2023-01-22T06:50:57.781Z,18.20
2023-01-22T06:53:26.017Z,19.48
2023-01-22T06:55:54.652Z,28.40
2023-01-22T06:58:22.248Z,27.60
2023-01-22T07:00:49.143Z,18.50
2023-01-22T07:03:16.508Z,18.83
2023-01-22T07:05:43.618Z,17.88
2023-01-22T07:08:14.445Z,12.90
2023-01-22T07:10:41.478Z,13.45
2023-01-22T07:13:10.363Z,12.23
2023-01-22T07:15:37.394Z,14.50
2023-01-22T07:18:04.839Z,16.20
2023-01-22T07:20:31.749Z,16.25
2023-01-22T07:23:00.176Z,16.85
2023-01-22T07:25:27.916Z,18.37
2023-01-22T07:27:58.974Z,17.00
2023-01-22T07:30:27.790Z,13.13
2023-01-22T07:35:25.106Z,11.57
2023-01-22T07:37:57.189Z,11.30
2023-01-22T07:40:29.119Z,12.13
2023-01-22T07:42:56.692Z,15.50
2023-01-22T07:45:28.287Z,11.80
2023-01-22T07:47:58.012Z,12.95
2023-01-22T07:50:26.932Z,11.75
2023-01-22T07:52:54.824Z,12.35
2023-01-22T07:55:21.774Z,11.98
2023-01-22T07:57:49.098Z,14.35
2023-01-22T08:00:17.196Z,10.00
2023-01-22T08:02:46.274Z,12.07
2023-01-22T08:05:14.330Z,13.93
2023-01-22T08:07:41.604Z,16.50
2023-01-22T08:10:09.804Z,12.50
2023-01-22T08:12:41.381Z,12.20
2023-01-22T08:15:09.028Z,13.63
2023-01-22T08:17:36.583Z,15.60
2023-01-22T08:20:07.291Z,14.15
2023-01-22T08:22:34.615Z,15.77
2023-01-22T08:25:01.645Z,14.40
2023-01-22T08:27:28.992Z,16.48
2023-01-22T08:29:55.979Z,20.05
2023-01-22T08:32:23.640Z,18.17
2023-01-22T08:34:54.189Z,21.73
2023-01-22T08:37:23.205Z,22.10
2023-01-22T08:39:50.455Z,26.95
2023-01-22T08:42:17.912Z,29.42
2023-01-22T08:44:44.999Z,26.02
2023-01-22T08:47:12.214Z,25.58
2023-01-22T08:49:39.125Z,24.30
2023-01-22T08:52:06.301Z,26.55
2023-01-22T08:54:34.682Z,30.13
2023-01-22T08:57:01.957Z,28.52
2023-01-22T08:59:30.873Z,30.17
2023-01-22T09:01:58.846Z,30.75
2023-01-22T09:04:26.318Z,29.35
2023-01-22T09:06:53.714Z,26.50
2023-01-22T09:09:20.603Z,26.42
2023-01-22T09:11:49.354Z,22.65
2023-01-22T09:14:16.413Z,31.40
2023-01-22T09:16:43.580Z,34.42
2023-01-22T09:19:11.450Z,27.90
2023-01-22T09:21:39.007Z,30.47
2023-01-22T09:24:06.842Z,32.00
2023-01-22T09:26:34.566Z,35.83
2023-01-22T09:29:05.801Z,37.70
2023-01-22T09:31:33.445Z,31.65
2023-01-22T09:34:00.460Z,33.80
2023-01-22T09:36:28.444Z,34.42
2023-01-22T09:38:55.604Z,33.67
2023-01-22T09:41:27.854Z,30.65
2023-01-22T09:43:57.537Z,32.45
2023-01-22T09:46:34.777Z,28.38
2023-01-22T09:49:08.248Z,30.27
2023-01-22T09:51:35.796Z,34.15
2023-01-22T09:54:07.240Z,33.53
2023-01-22T09:56:40.346Z,35.40
2023-01-22T09:59:13.465Z,31.40
2023-01-22T10:01:42.687Z,33.70
2023-01-22T10:04:22.451Z,37.03
2023-01-22T10:06:51.270Z,43.83
2023-01-22T10:09:20.473Z,47.08
2023-01-22T10:11:53.999Z,41.80
2023-01-22T10:14:26.559Z,34.40
2023-01-22T10:16:59.146Z,27.80
2023-01-22T10:19:29.197Z,28.48
2023-01-22T10:22:00.999Z,26.85
2023-01-22T10:24:29.216Z,31.88
2023-01-22T10:26:58.939Z,29.02
2023-01-22T10:29:31.481Z,29.33
2023-01-22T10:32:02.321Z,35.10
2023-01-22T10:34:32.820Z,32.47
2023-01-22T10:37:02.530Z,30.02
2023-01-22T10:39:39.004Z,28.60
2023-01-22T10:42:06.573Z,33.35
2023-01-22T10:44:33.631Z,30.88
2023-01-22T10:47:12.335Z,29.70
2023-01-22T10:49:39.323Z,30.52
2023-01-22T10:52:21.095Z,35.58
2023-01-22T10:54:54.040Z,36.85
2023-01-22T10:57:25.190Z,29.25
2023-01-22T10:59:55.217Z,32.42
2023-01-22T11:02:26.133Z,25.77
2023-01-22T11:04:53.665Z,31.95
2023-01-22T11:07:24.323Z,31.52
2023-01-22T11:09:56.746Z,29.70
2023-01-22T11:12:29.122Z,27.75
2023-01-22T11:15:03.009Z,29.92
2023-01-22T11:17:38.393Z,28.08
2023-01-22T11:20:15.824Z,29.45
2023-01-22T11:22:49.130Z,31.52
2023-01-22T11:25:16.115Z,28.67
2023-01-22T11:28:06.374Z,25.02
2023-01-22T11:31:13.272Z,28.17
2023-01-22T11:34:00.980Z,29.05
2023-01-22T11:36:36.019Z,27.98
2023-01-22T11:39:13.545Z,32.42
2023-01-22T11:41:52.485Z,28.08
2023-01-22T11:44:35.023Z,29.67
2023-01-22T11:47:14.425Z,33.28
2023-01-22T11:49:58.107Z,32.33
2023-01-22T11:52:35.416Z,28.92
2023-01-22T11:55:22.107Z,25.45
2023-01-22T11:57:58.957Z,24.85
2023-01-22T12:00:49.382Z,26.38
2023-01-22T12:03:59.601Z,28.58
2023-01-22T12:06:47.418Z,39.75
2023-01-22T12:09:21.647Z,26.58
2023-01-22T12:12:03.362Z,24.08
2023-01-22T12:14:39.905Z,26.55
2023-01-22T12:17:17.303Z,20.10
2023-01-22T12:19:59.661Z,26.25
2023-01-22T12:22:38.438Z,25.02
2023-01-22T12:25:15.963Z,27.00
2023-01-22T12:27:48.082Z,24.15
2023-01-22T12:30:21.207Z,25.33
2023-01-22T12:32:54.796Z,29.85
2023-01-22T12:35:22.757Z,31.15
2023-01-22T12:37:59.973Z,20.37
2023-01-22T12:40:44.374Z,18.55
2023-01-22T12:43:11.886Z,20.80
2023-01-22T12:45:51.372Z,24.15
2023-01-22T12:48:25.469Z,20.92
2023-01-22T12:50:54.660Z,21.80
2023-01-22T12:53:27.688Z,24.38
2023-01-22T12:56:00.131Z,20.15
2023-01-22T12:58:29.112Z,22.55
2023-01-22T13:01:01.426Z,20.60
2023-01-22T13:03:32.121Z,24.55
2023-01-22T13:06:00.848Z,20.17
2023-01-22T13:08:39.385Z,20.60
2023-01-22T13:11:09.294Z,17.25
2023-01-22T13:13:44.933Z,18.25
2023-01-22T13:16:21.836Z,17.45
2023-01-22T13:18:51.390Z,17.45
2023-01-22T13:21:25.365Z,18.52
2023-01-22T13:23:59.105Z,16.02
2023-01-22T13:26:27.858Z,19.13
2023-01-22T13:31:23.877Z,16.67
2023-01-22T13:34:00.342Z,19.48
2023-01-22T13:36:28.173Z,19.73
2023-01-22T13:38:58.528Z,16.80
2023-01-22T13:41:29.382Z,20.40
2023-01-22T13:43:57.287Z,20.00
2023-01-22T13:46:26.223Z,17.17
2023-01-22T13:49:05.675Z,21.75
2023-01-22T13:51:34.614Z,19.08
2023-01-22T13:54:07.201Z,23.30
2023-01-22T13:56:34.736Z,18.02
2023-01-22T13:59:07.627Z,18.13
2023-01-22T14:01:36.378Z,21.20
2023-01-22T14:06:43.739Z,23.60
2023-01-22T14:09:12.472Z,19.08
2023-01-22T14:11:40.354Z,22.85
2023-01-22T14:14:25.407Z,18.60
2023-01-22T14:16:54.052Z,17.73
2023-01-22T14:19:21.351Z,24.80
2023-01-22T14:21:48.272Z,21.75
2023-01-22T14:24:16.857Z,23.42
2023-01-22T14:26:43.755Z,28.80
2023-01-22T14:29:11.012Z,34.45
2023-01-22T14:31:37.906Z,31.17
2023-01-22T14:34:05.217Z,26.52
2023-01-22T14:36:32.041Z,28.30
2023-01-22T14:38:59.325Z,26.05
2023-01-22T14:41:28.008Z,25.33
2023-01-22T14:43:55.496Z,29.77
2023-01-22T14:46:22.626Z,27.23
2023-01-22T14:48:49.898Z,22.55
2023-01-22T14:51:16.818Z,22.40
2023-01-22T14:53:44.153Z,26.73
2023-01-22T14:56:11.042Z,28.92
2023-01-22T14:58:39.737Z,25.45
2023-01-22T15:01:17.510Z,28.15
2023-01-22T15:03:44.842Z,40.80
2023-01-22T15:06:11.813Z,36.33
2023-01-22T15:08:39.196Z,35.67
2023-01-22T15:11:06.460Z,32.45
2023-01-22T15:13:34.187Z,31.05
2023-01-22T15:16:07.049Z,30.27
2023-01-22T15:18:34.955Z,26.13
2023-01-22T15:21:04.035Z,26.27
2023-01-22T15:23:31.321Z,31.95
2023-01-22T15:25:59.415Z,33.75
2023-01-22T15:28:27.467Z,30.70
2023-01-22T15:30:57.070Z,28.88
2023-01-22T15:33:27.018Z,32.00
2023-01-22T15:35:53.872Z,36.30
2023-01-22T15:38:21.123Z,33.03
2023-01-22T15:40:48.439Z,31.85
2023-01-22T15:43:15.860Z,31.60
2023-01-22T15:45:42.698Z,31.35
2023-01-22T15:48:11.241Z,36.35
2023-01-22T15:50:39.607Z,31.57
2023-01-22T15:53:07.733Z,34.85
2023-01-22T15:55:34.756Z,35.47
2023-01-22T15:58:02.022Z,31.40
2023-01-22T16:00:28.958Z,33.72
2023-01-22T16:02:56.197Z,41.45
2023-01-22T16:05:23.131Z,36.47
2023-01-22T16:07:52.618Z,34.03
2023-01-22T16:10:20.150Z,35.13
2023-01-22T16:12:47.757Z,38.28
2023-01-22T16:15:15.104Z,36.63
2023-01-22T16:17:42.391Z,32.00
2023-01-22T16:20:10.700Z,38.28
2023-01-22T16:22:37.902Z,41.85
2023-01-22T16:25:06.830Z,48.15
2023-01-22T16:30:00.839Z,39.80
2023-01-22T16:32:28.515Z,42.70
2023-01-22T16:34:55.690Z,39.58
2023-01-22T16:37:22.975Z,45.75
2023-01-22T16:39:49.848Z,47.33
2023-01-22T16:42:20.786Z,39.10
2023-01-22T16:44:47.771Z,44.40
2023-01-22T16:47:14.875Z,45.20
2023-01-22T16:49:41.851Z,35.25
2023-01-22T16:52:21.957Z,70.65
2023-01-22T16:54:50.532Z,40.47
2023-01-22T16:57:20.173Z,43.13
2023-01-22T16:59:47.174Z,42.78
2023-01-22T17:02:16.532Z,67.03
2023-01-22T17:07:27.357Z,40.42
2023-01-22T17:09:58.893Z,51.20
2023-01-22T17:12:27.606Z,47.17
2023-01-22T17:14:54.548Z,32.70
2023-01-22T17:17:21.932Z,38.55
2023-01-22T17:19:48.936Z,48.17
2023-01-22T17:22:16.292Z,35.05
2023-01-22T17:24:43.482Z,125.90
2023-01-22T17:27:14.127Z,40.17
2023-01-22T17:29:42.366Z,90.70
2023-01-22T17:32:09.728Z,68.15
2023-01-22T17:34:37.416Z,30.38
2023-01-22T17:37:09.502Z,53.33
2023-01-22T17:39:37.338Z,27.00
2023-01-22T17:42:04.986Z,56.85
2023-01-22T17:44:34.266Z,66.68
2023-01-22T17:47:03.773Z,69.18
2023-01-22T17:49:32.513Z,49.80
2023-01-22T17:51:59.645Z,49.88
2023-01-22T17:54:26.699Z,43.00
2023-01-22T17:56:54.237Z,56.85
2023-01-22T17:59:24.239Z,60.95
2023-01-22T18:01:51.681Z,43.78
2023-01-22T18:04:20.279Z,36.75
2023-01-22T18:06:47.716Z,55.83
2023-01-22T18:09:14.701Z,65.75
2023-01-22T18:11:42.415Z,35.65
2023-01-22T18:14:12.096Z,67.22
2023-01-22T18:16:40.872Z,67.72
2023-01-22T18:19:08.642Z,53.85
2023-01-22T18:21:38.831Z,88.72
2023-01-22T18:24:07.995Z,62.42
2023-01-22T18:26:35.998Z,50.40
2023-01-22T18:29:04.477Z,54.70
2023-01-22T18:31:32.468Z,37.97
2023-01-22T18:34:02.315Z,62.72
2023-01-22T18:36:32.262Z,41.60
2023-01-22T18:39:01.704Z,55.33
2023-01-22T18:41:29.020Z,59.88
2023-01-22T18:43:59.029Z,51.22
2023-01-22T18:46:28.846Z,43.17
2023-01-22T18:48:58.240Z,32.42
2023-01-22T18:51:26.877Z,37.70
2023-01-22T18:53:54.788Z,43.28
2023-01-22T18:56:25.515Z,67.63
2023-01-22T18:58:53.745Z,72.00
2023-01-22T19:01:22.923Z,51.67
2023-01-22T19:03:52.658Z,45.60
2023-01-22T19:06:22.817Z,55.83
2023-01-22T19:08:55.460Z,32.72
2023-01-22T19:11:24.485Z,38.95
2023-01-22T19:13:53.125Z,40.20
2023-01-22T19:16:25.019Z,30.67
2023-01-22T19:18:55.382Z,29.63
2023-01-22T19:21:24.092Z,40.90
2023-01-22T19:23:53.340Z,48.20
2023-01-22T19:26:22.529Z,25.52
2023-01-22T19:28:53.262Z,37.75
2023-01-22T19:31:22.671Z,25.80
2023-01-22T19:36:18.053Z,68.93
2023-01-22T19:38:45.346Z,24.90
2023-01-22T19:41:13.215Z,38.90
2023-01-22T19:43:41.971Z,50.80
2023-01-22T19:46:13.707Z,51.88
2023-01-22T19:48:41.333Z,92.45
2023-01-22T19:51:11.472Z,64.85
2023-01-22T19:53:40.348Z,47.83
2023-01-22T19:58:41.778Z,61.55
2023-01-22T20:01:11.508Z,87.45
2023-01-22T20:03:38.676Z,74.10
2023-01-22T20:06:07.494Z,105.80
2023-01-22T20:08:38.967Z,110.60
2023-01-22T20:11:08.235Z,74.45
2023-01-22T20:13:36.036Z,110.20
2023-01-22T20:16:04.433Z,66.70
2023-01-22T20:18:33.350Z,59.47
2023-01-22T20:21:02.973Z,55.00
2023-01-22T20:23:31.319Z,122.38
2023-01-22T20:26:00.506Z,126.05
2023-01-22T20:28:27.809Z,101.97
2023-01-22T20:30:59.788Z,106.20
2023-01-22T20:33:27.897Z,149.32
2023-01-22T20:35:58.754Z,197.77
2023-01-22T20:38:26.384Z,136.55
2023-01-22T20:40:54.352Z,129.32
2023-01-22T20:43:21.672Z,163.35
2023-01-22T20:45:59.452Z,132.05
2023-01-22T20:48:26.790Z,215.52
2023-01-22T20:50:56.684Z,95.97
2023-01-22T20:53:25.783Z,136.70
2023-01-22T20:56:00.518Z,151.82
2023-01-22T20:58:28.482Z,155.43
2023-01-22T21:00:56.563Z,76.90
2023-01-22T21:03:24.286Z,72.03
2023-01-22T21:05:51.558Z,80.35
2023-01-22T21:08:19.859Z,71.03
2023-01-22T21:10:55.829Z,100.68
2023-01-22T21:13:23.729Z,62.30
2023-01-22T21:15:51.130Z,33.37
2023-01-22T21:18:18.263Z,39.47
2023-01-22T21:20:45.533Z,34.22
2023-01-22T21:23:12.883Z,39.03
2023-01-22T21:25:41.602Z,34.08
2023-01-22T21:28:08.667Z,28.17
2023-01-22T21:30:35.949Z,63.45
2023-01-22T21:33:03.118Z,72.00
2023-01-22T21:35:30.397Z,51.80
2023-01-22T21:37:57.296Z,62.63
2023-01-22T21:40:24.545Z,33.90
2023-01-22T21:43:11.344Z,30.77
2023-01-22T21:46:00.530Z,37.38
2023-01-22T21:48:29.321Z,51.75
2023-01-22T21:50:56.553Z,29.40
2023-01-22T21:53:23.643Z,36.35
2023-01-22T21:55:51.740Z,61.50
2023-01-22T21:58:20.121Z,59.00
2023-01-22T22:00:47.454Z,30.23
2023-01-22T22:03:15.993Z,17.08
2023-01-22T22:05:43.378Z,19.45
2023-01-22T22:08:10.339Z,19.85
2023-01-22T22:10:37.517Z,18.40
2023-01-22T22:13:04.467Z,17.27
2023-01-22T22:15:34.521Z,17.35
2023-01-22T22:18:01.536Z,15.23
2023-01-22T22:20:29.135Z,15.70
2023-01-22T22:22:56.269Z,17.98
2023-01-22T22:25:23.530Z,13.75
2023-01-22T22:27:50.610Z,14.40
2023-01-22T22:30:18.623Z,18.27
2023-01-22T22:32:47.170Z,17.15
2023-01-22T22:35:14.696Z,15.20
2023-01-22T22:37:41.672Z,17.88
2023-01-22T22:40:11.185Z,16.85
2023-01-22T22:42:38.137Z,15.40
2023-01-22T22:45:06.364Z,18.00
2023-01-22T22:47:36.289Z,18.25
2023-01-22T22:50:06.229Z,17.27
2023-01-22T22:52:34.572Z,20.42
2023-01-22T22:55:02.764Z,19.58
2023-01-22T22:57:30.013Z,18.33
2023-01-22T22:59:57.127Z,19.95
2023-01-22T23:02:24.225Z,18.55
2023-01-22T23:04:51.359Z,17.48
2023-01-22T23:07:19.607Z,17.13
2023-01-22T23:09:46.725Z,17.25
2023-01-22T23:12:13.584Z,16.73
2023-01-22T23:14:40.879Z,16.27
2023-01-22T23:17:07.747Z,18.20
2023-01-22T23:19:35.043Z,17.08
2023-01-22T23:22:02.099Z,17.77
2023-01-22T23:24:31.980Z,17.33
2023-01-22T23:26:58.969Z,17.10
2023-01-22T23:29:29.460Z,19.52
2023-01-22T23:31:57.558Z,16.35
2023-01-22T23:34:25.264Z,16.65
2023-01-22T23:36:52.246Z,17.95
2023-01-22T23:39:20.940Z,17.45
2023-01-22T23:41:49.439Z,16.35
2023-01-22T23:44:16.840Z,22.23
2023-01-22T23:46:44.868Z,19.05
2023-01-22T23:49:12.205Z,17.02
2023-01-22T23:51:42.112Z,18.00
2023-01-22T23:54:09.459Z,17.77
2023-01-22T23:56:36.714Z,19.10
2023-01-22T23:59:05.584Z,24.70
